Sylvan, Minnesota
Current Conditions -  °F | °C
As of 3:53 PM on Thursday 23 Oct 2014 (Local Time) from KBRD Reporting Station
Clear Clear  
Wind Chill: 66°   Ceiling: Unl
Heat Index: 66°   Visibility: 10mi
Dew Point: 44°   Wind: 6mph
Humidity: 45%   Direction: 190°S
Pressure: 29.91"   Gusts: NA
Location:  46.4437°N, 94.4479°W
Report Text: KBRD 232053Z AUTO 19005KT 10SM CLR 19/07 A2991 RMK AO2 SLP131 T01890067 56017
Loading
Personal Weather Stations






























Interactive Weather Map
Tropical Storm Tracking
New forecast layout! Learn more

10-Day Weather Forecast

Advertisements
Track Severe Weather on mobile